WetterOnline ( https://www.wetteronline.de )

Wetter aktuell Harz (in 600m)

Aktuelles Wetter: Braunlage (609m)

6-stündlich | Neueste Meldungen
Ortszeit Temperatur Wetter
Di, 25.06. 2:00 18.4° C wolkenlos
Mo, 24.06. 20:00 23.5° C leicht bewölkt
Mo, 24.06. 14:00 23.7° C leicht bewölkt
Mo, 24.06. 8:00 19.0° C leicht bewölkt
Mo, 24.06. 2:00 15.8° C fast wolkenlos
So, 23.06. 20:00 22.0° C wolkenlos
So, 23.06. 14:00 22.0° C fast wolkenlos
So, 23.06. 8:00 17.6° C wolkenlos
Ortszeit Temperatur Wetter
Di, 25.06. 5:00 16.3° C wolkenlos
Di, 25.06. 4:50 16.3° C wolkenlos
Di, 25.06. 4:40 15.8° C wolkenlos
Di, 25.06. 4:30 16.4° C fast wolkenlos
Di, 25.06. 4:20 16.4° C fast wolkenlos
Di, 25.06. 4:10 16.6° C fast wolkenlos
Di, 25.06. 4:00 16.2° C leicht bewölkt
Di, 25.06. 3:30 16.6° C wolkig
Di, 25.06. 3:00 17.2° C fast wolkenlos
Di, 25.06. 2:30 17.5° C wolkenlos
Di, 25.06. 2:00 18.4° C wolkenlos
Ortszeit Relative Feuchte Sichtweite
Di, 25.06. 2:00 46% >70 km
Mo, 24.06. 20:00 30% >70 km
Mo, 24.06. 14:00 38% 65 km
Mo, 24.06. 8:00 57% 40 km
Mo, 24.06. 2:00 61% >70 km
So, 23.06. 20:00 38% >70 km
So, 23.06. 14:00 46% >70 km
So, 23.06. 8:00 58% 55 km
Ortszeit Relative Feuchte Sichtweite
Di, 25.06. 5:00 68% >70 km
Di, 25.06. 4:50 68% -
Di, 25.06. 4:40 71% -
Di, 25.06. 4:30 67% >70 km
Di, 25.06. 4:20 67% -
Di, 25.06. 4:10 65% -
Di, 25.06. 4:00 66% >70 km
Di, 25.06. 3:30 61% >70 km
Di, 25.06. 3:00 55% >70 km
Di, 25.06. 2:30 50% >70 km
Di, 25.06. 2:00 46% >70 km
Ortszeit Niederschlagsmenge Niederschlagsart
Di, 25.06. 2:00 0.0 l/m2 in 6 Std. -
Mo, 24.06. 20:00 0.0 l/m2 in 12 Std. -
Mo, 24.06. 14:00 0.0 l/m2 in 6 Std. -
Mo, 24.06. 8:00 0.0 l/m2 in 12 Std. -
Mo, 24.06. 2:00 0.0 l/m2 in 6 Std. -
So, 23.06. 20:00 0.0 l/m2 in 12 Std. -
So, 23.06. 14:00 0.0 l/m2 in 6 Std. -
So, 23.06. 8:00 0.0 l/m2 in 12 Std. -
Ortszeit Niederschlagsmenge Niederschlagsart
Di, 25.06. 5:00 0.0 l/m2 in 1 Std. -
Di, 25.06. 4:50 keine Meldung -
Di, 25.06. 4:40 keine Meldung -
Di, 25.06. 4:30 0.0 l/m2 in 1 Std. -
Di, 25.06. 4:20 keine Meldung -
Di, 25.06. 4:10 keine Meldung -
Di, 25.06. 4:00 0.0 l/m2 in 1 Std. -
Di, 25.06. 3:30 0.0 l/m2 in 1 Std. -
Di, 25.06. 3:00 0.0 l/m2 in 1 Std. -
Di, 25.06. 2:30 0.0 l/m2 in 1 Std. -
Di, 25.06. 2:00 0.0 l/m2 in 1 Std. -
Ortszeit Stärke Spitze Richtung
km/h Bft. km/h Grad Sektor
Di, 25.06. 2:00 7 2 22 20° N
Mo, 24.06. 20:00 13 3 31 110° O
Mo, 24.06. 14:00 14 3 43 120° SO
Mo, 24.06. 8:00 4 1 18 90° O
Mo, 24.06. 2:00 9 2 24 50° NO
So, 23.06. 20:00 9 2 35 80° O
So, 23.06. 14:00 18 3 43 110° O
So, 23.06. 8:00 11 2 22 70° O
Ortszeit Stärke Spitze Richtung
km/h Bft. km/h Grad Sektor
Di, 25.06. 5:00 4 1 11 330° NW
Di, 25.06. 4:50 4 1 - 330° NW
Di, 25.06. 4:40 4 1 - 330° NW
Di, 25.06. 4:30 4 1 11 350° N
Di, 25.06. 4:20 4 1 - 350° N
Di, 25.06. 4:10 6 1 - 350° N
Di, 25.06. 4:00 7 2 11 360° N
Di, 25.06. 3:30 7 2 11 10° N
Di, 25.06. 3:00 7 2 11 20° N
Di, 25.06. 2:30 6 1 9 20° N
Di, 25.06. 2:00 7 2 14 20° N
Ortszeit Untergrenze Bedeckung Gattung
total tief tief mittel hoch
Di, 25.06. 2:00 - 0/8 0/8 - - -
Mo, 24.06. 20:00 10500 m 8/8 0/8 - - -
Mo, 24.06. 14:00 9000 m 5/8 0/8 - - -
Mo, 24.06. 8:00 10500 m 3/8 0/8 - - -
Mo, 24.06. 2:00 10500 m 1/8 0/8 - - -
So, 23.06. 20:00 - 0/8 0/8 - - -
So, 23.06. 14:00 1500 m 1/8 1/8 - - -
So, 23.06. 8:00 - 0/8 0/8 - - -
Ortszeit Bedeckungsgrad in Achtel und Wolkenuntergrenze
Di, 25.06. 5:00 keine Wolken
Di, 25.06. 4:50 keine Wolken
Di, 25.06. 4:40 keine Wolken
Di, 25.06. 4:30 1(12000m)
Di, 25.06. 4:20 1(12000m)
Di, 25.06. 4:10 1(12000m)
Di, 25.06. 4:00 4(12000m)
Di, 25.06. 3:30 8(12000m)
Di, 25.06. 3:00 1(9000m)
Di, 25.06. 2:30 keine Wolken
Di, 25.06. 2:00 keine Wolken
Ortszeit Luftdruck NN (hPa) Tendenz (hPa in 3 Std.)
Di, 25.06. 2:00 1022 - 0,1
Mo, 24.06. 20:00 1021 - 0,2
Mo, 24.06. 14:00 1021 - 0,4
Mo, 24.06. 8:00 1023 + 0,5
Mo, 24.06. 2:00 1024 + 1,0
So, 23.06. 20:00 1020 - 0,1
So, 23.06. 14:00 1020 0,0
So, 23.06. 8:00 1021 + 0,2
Ortszeit Luftdruck NN (hPa) Tendenz (hPa in 3 Std.)
Di, 25.06. 5:00 1022 - 0,8
Di, 25.06. 4:50 1022 keine Meldung
Di, 25.06. 4:40 1022 keine Meldung
Di, 25.06. 4:30 1022 - 0,7
Di, 25.06. 4:20 1022 keine Meldung
Di, 25.06. 4:10 1022 keine Meldung
Di, 25.06. 4:00 1022 - 0,6
Di, 25.06. 3:30 1022 - 0,7
Di, 25.06. 3:00 1022 - 0,6
Di, 25.06. 2:30 1022 - 0,5
Di, 25.06. 2:00 1022 - 0,1
Ortszeit Schneehöhe (cm)
Di, 25.06. 2:00 -
Mo, 24.06. 20:00 -
Mo, 24.06. 14:00 -
Mo, 24.06. 8:00 -
Mo, 24.06. 2:00 -
So, 23.06. 20:00 -
So, 23.06. 14:00 -
So, 23.06. 8:00 -
Ortszeit Schneehöhe (cm)
Di, 25.06. 5:00 -
Di, 25.06. 4:50 -
Di, 25.06. 4:40 -
Di, 25.06. 4:30 -
Di, 25.06. 4:20 -
Di, 25.06. 4:10 -
Di, 25.06. 4:00 -
Di, 25.06. 3:30 -
Di, 25.06. 3:00 -
Di, 25.06. 2:30 -
Di, 25.06. 2:00 -
Link zu dieser Seite / Seite empfehlen

Das Wetter in ...